createdAt,value
2019-04-16T00:00:49.876Z,4.10
2019-04-16T00:03:20.265Z,4.73
2019-04-16T00:05:58.647Z,3.53
2019-04-16T00:08:28.824Z,4.73
2019-04-16T00:11:12.674Z,4.30
2019-04-16T00:13:47.799Z,3.90
2019-04-16T00:16:16.269Z,4.17
2019-04-16T00:18:56.603Z,4.13
2019-04-16T00:21:38.391Z,3.33
2019-04-16T00:24:22.113Z,4.50
2019-04-16T00:26:52.397Z,4.13
2019-04-16T00:29:20.968Z,3.93
2019-04-16T00:31:55.348Z,3.23
2019-04-16T00:34:23.878Z,4.10
2019-04-16T00:36:52.355Z,3.80
2019-04-16T00:39:24.424Z,3.77
2019-04-16T00:41:51.076Z,4.37
2019-04-16T00:44:19.571Z,3.03
2019-04-16T00:46:48.045Z,4.50
2019-04-16T00:49:16.520Z,4.40
2019-04-16T00:51:45.003Z,4.33
2019-04-16T00:54:13.485Z,3.33
2019-04-16T00:56:43.591Z,4.00
2019-04-16T00:59:12.158Z,4.50
2019-04-16T01:01:40.633Z,4.40
2019-04-16T01:04:09.215Z,4.50
2019-04-16T01:06:37.953Z,3.53
2019-04-16T01:09:08.062Z,4.40
2019-04-16T01:11:36.537Z,4.37
2019-04-16T01:14:05.048Z,4.60
2019-04-16T01:16:33.603Z,3.80
2019-04-16T01:19:02.095Z,3.70
2019-04-16T01:21:30.566Z,4.13
2019-04-16T01:23:59.211Z,4.53
2019-04-16T01:26:27.769Z,3.90
2019-04-16T01:29:03.690Z,3.83
2019-04-16T01:31:44.069Z,4.13
2019-04-16T01:34:24.160Z,3.63
2019-04-16T01:37:25.608Z,4.03
2019-04-16T01:39:52.543Z,4.03
2019-04-16T01:42:23.515Z,4.33
2019-04-16T01:44:51.200Z,4.13
2019-04-16T01:47:19.737Z,4.50
2019-04-16T01:49:48.227Z,4.23
2019-04-16T01:52:18.927Z,4.03
2019-04-16T01:54:46.932Z,4.50
2019-04-16T01:57:15.425Z,3.90
2019-04-16T01:59:43.885Z,3.77
2019-04-16T02:02:15.760Z,3.93
2019-04-16T02:04:42.567Z,4.40
2019-04-16T02:07:11.041Z,3.70
2019-04-16T02:09:39.535Z,3.93
2019-04-16T02:12:12.770Z,4.50
2019-04-16T02:14:38.267Z,4.13
2019-04-16T02:17:07.206Z,4.80
2019-04-16T02:19:35.690Z,3.90
2019-04-16T02:22:04.192Z,4.73
2019-04-16T02:24:32.664Z,3.80
2019-04-16T02:27:01.108Z,5.03
2019-04-16T02:29:30.532Z,4.27
2019-04-16T02:31:59.094Z,4.37
2019-04-16T02:34:27.572Z,4.23
2019-04-16T02:37:00.553Z,4.23
2019-04-16T02:39:46.514Z,4.00
2019-04-16T02:41:58.076Z,4.47
2019-04-16T02:44:26.962Z,3.97
2019-04-16T02:46:55.410Z,4.50
2019-04-16T02:49:25.192Z,4.20
2019-04-16T02:52:01.685Z,4.17
2019-04-16T02:54:49.193Z,5.33
2019-04-16T02:57:36.683Z,4.37
2019-04-16T03:00:11.010Z,4.90
2019-04-16T03:02:56.999Z,4.70
2019-04-16T03:05:29.860Z,3.87
2019-04-16T03:07:58.487Z,4.80
2019-04-16T03:10:27.195Z,4.80
2019-04-16T03:12:57.399Z,4.20
2019-04-16T03:15:45.929Z,3.60
2019-04-16T03:18:16.228Z,4.00
2019-04-16T03:20:44.767Z,4.27
2019-04-16T03:23:13.318Z,4.03
2019-04-16T03:25:44.416Z,3.47
2019-04-16T03:28:11.977Z,3.80
2019-04-16T03:30:42.518Z,5.00
2019-04-16T03:33:14.314Z,4.37
2019-04-16T03:35:40.890Z,4.40
2019-04-16T03:38:09.690Z,4.73
2019-04-16T03:40:38.155Z,4.13
2019-04-16T03:43:06.620Z,4.17
2019-04-16T03:45:37.606Z,4.73
2019-04-16T03:48:05.555Z,4.17
2019-04-16T03:50:34.017Z,4.27
2019-04-16T03:53:02.490Z,3.70
2019-04-16T03:55:30.981Z,5.37
2019-04-16T03:57:59.456Z,4.20
2019-04-16T04:00:27.914Z,4.40
2019-04-16T04:02:56.353Z,4.77
2019-04-16T04:05:24.828Z,4.53
2019-04-16T04:07:55.252Z,3.73
2019-04-16T04:10:30.758Z,4.50
2019-04-16T04:12:53.723Z,4.60
2019-04-16T04:15:25.968Z,4.57
2019-04-16T04:17:52.501Z,6.07
2019-04-16T04:20:21.244Z,4.73
2019-04-16T04:22:49.726Z,4.47
2019-04-16T04:25:18.208Z,4.47
2019-04-16T04:27:47.629Z,4.47
2019-04-16T04:30:18.550Z,4.43
2019-04-16T04:32:47.701Z,5.53
2019-04-16T04:35:20.215Z,4.77
2019-04-16T04:37:46.472Z,5.13
2019-04-16T04:40:15.850Z,4.77
2019-04-16T04:42:45.450Z,4.90
2019-04-16T04:45:14.282Z,5.10
2019-04-16T04:47:42.745Z,5.60
2019-04-16T04:50:11.200Z,4.50
2019-04-16T04:52:39.700Z,4.90
2019-04-16T04:55:08.191Z,3.90
2019-04-16T04:57:36.658Z,4.70
2019-04-16T05:00:08.442Z,5.63
2019-04-16T05:02:36.077Z,5.10
2019-04-16T05:05:29.585Z,5.73
2019-04-16T05:08:00.025Z,4.47
2019-04-16T05:10:28.261Z,4.77
2019-04-16T05:12:56.726Z,5.70
2019-04-16T05:15:26.416Z,5.00
2019-04-16T05:17:55.377Z,5.77
2019-04-16T05:20:23.913Z,4.40
2019-04-16T05:22:53.597Z,6.40
2019-04-16T05:25:22.825Z,5.27
2019-04-16T05:27:51.657Z,4.30
2019-04-16T05:30:21.684Z,5.67
2019-04-16T05:32:50.817Z,4.93
2019-04-16T05:35:19.382Z,5.53
2019-04-16T05:37:48.509Z,5.30
2019-04-16T05:40:18.521Z,5.73
2019-04-16T05:42:47.029Z,4.30
2019-04-16T05:45:15.513Z,6.03
2019-04-16T05:47:48.740Z,5.13
2019-04-16T05:50:14.366Z,5.63
2019-04-16T05:52:42.913Z,5.57
2019-04-16T05:55:19.477Z,4.93
2019-04-16T05:57:48.295Z,4.80
2019-04-16T06:00:24.092Z,4.77
2019-04-16T06:02:52.553Z,5.80
2019-04-16T06:05:21.030Z,4.90
2019-04-16T06:07:49.469Z,4.83
2019-04-16T06:10:19.221Z,4.77
2019-04-16T06:13:03.184Z,3.87
2019-04-16T06:15:38.446Z,5.10
2019-04-16T06:18:17.836Z,5.13
2019-04-16T06:20:53.081Z,5.27
2019-04-16T06:23:41.204Z,5.00
2019-04-16T06:26:28.714Z,5.07
2019-04-16T06:29:14.811Z,4.83
2019-04-16T06:31:57.313Z,4.40
2019-04-16T06:34:32.768Z,4.33
2019-04-16T06:37:12.822Z,5.37
2019-04-16T06:40:01.055Z,5.27
2019-04-16T06:42:33.530Z,6.33
2019-04-16T06:45:05.934Z,6.30
2019-04-16T06:47:52.203Z,5.53
2019-04-16T06:50:40.656Z,4.70
2019-04-16T06:53:14.541Z,5.17
2019-04-16T06:56:02.052Z,4.83
2019-04-16T06:58:50.212Z,5.10
2019-04-16T07:01:42.271Z,5.87
2019-04-16T07:04:30.479Z,5.00
2019-04-16T07:07:23.364Z,5.47
2019-04-16T07:10:10.859Z,6.37
2019-04-16T07:12:39.412Z,4.63
2019-04-16T07:15:08.360Z,5.77
2019-04-16T07:17:40.177Z,5.23
2019-04-16T07:20:07.054Z,5.00
2019-04-16T07:22:35.548Z,5.00
2019-04-16T07:25:05.794Z,4.60
2019-04-16T07:27:57.289Z,4.40
2019-04-16T07:30:40.944Z,4.93
2019-04-16T07:33:17.212Z,5.07
2019-04-16T07:35:52.901Z,4.60
2019-04-16T07:38:35.133Z,5.43
2019-04-16T07:41:20.562Z,4.63
2019-04-16T07:44:10.209Z,4.60
2019-04-16T07:46:47.149Z,4.73
2019-04-16T07:49:41.123Z,4.67
2019-04-16T07:52:31.255Z,5.13
2019-04-16T07:55:05.348Z,4.57
2019-04-16T07:57:34.062Z,5.13
2019-04-16T08:00:02.538Z,5.60
2019-04-16T08:02:31.001Z,5.10
2019-04-16T08:04:59.477Z,5.23
2019-04-16T08:07:27.945Z,6.73
2019-04-16T08:10:01.389Z,5.40
2019-04-16T08:12:30.579Z,5.20
2019-04-16T08:14:56.835Z,5.97
2019-04-16T08:17:25.293Z,6.00
2019-04-16T08:19:55.597Z,6.63
2019-04-16T08:22:24.234Z,5.30
2019-04-16T08:24:59.417Z,7.57
2019-04-16T08:27:27.223Z,5.60
2019-04-16T08:29:55.695Z,5.57
2019-04-16T08:32:25.944Z,5.03
2019-04-16T08:34:54.610Z,6.60
2019-04-16T08:37:23.418Z,6.83
2019-04-16T08:39:51.860Z,5.73
2019-04-16T08:42:24.138Z,5.40
2019-04-16T08:44:50.600Z,6.30
2019-04-16T08:47:19.060Z,5.40
2019-04-16T08:49:53.653Z,5.83
2019-04-16T08:52:18.051Z,5.37
2019-04-16T08:54:50.025Z,6.07
2019-04-16T08:57:16.778Z,5.37
2019-04-16T08:59:45.232Z,5.80
2019-04-16T09:02:13.690Z,6.30
2019-04-16T09:04:42.137Z,6.47
2019-04-16T09:07:29.958Z,6.27
2019-04-16T09:09:58.800Z,5.97
2019-04-16T09:12:27.455Z,5.37
2019-04-16T09:14:56.613Z,5.53
2019-04-16T09:17:28.515Z,7.67
2019-04-16T09:20:11.233Z,6.97
2019-04-16T09:22:48.887Z,5.93
2019-04-16T09:25:32.149Z,6.20
2019-04-16T09:28:17.666Z,7.23
2019-04-16T09:30:56.901Z,6.77
2019-04-16T09:33:43.440Z,6.63
2019-04-16T09:36:46.416Z,8.00
2019-04-16T09:39:33.946Z,7.57
2019-04-16T09:42:02.468Z,6.80
2019-04-16T09:44:35.003Z,6.47
2019-04-16T09:47:01.121Z,5.83
2019-04-16T09:49:29.605Z,8.07
2019-04-16T09:51:58.054Z,8.33
2019-04-16T09:54:26.897Z,7.30
2019-04-16T09:56:56.794Z,7.13
2019-04-16T09:59:30.739Z,6.27
2019-04-16T10:02:17.128Z,5.80
2019-04-16T10:04:45.601Z,7.53
2019-04-16T10:07:14.066Z,5.57
2019-04-16T10:09:42.549Z,6.90
2019-04-16T10:12:11.045Z,7.23
2019-04-16T10:14:39.493Z,7.33
2019-04-16T10:17:07.951Z,6.63
2019-04-16T10:19:36.544Z,6.47
2019-04-16T10:22:05.005Z,8.63
2019-04-16T10:24:51.457Z,6.77
2019-04-16T10:27:31.248Z,7.17
2019-04-16T10:29:58.073Z,6.90
2019-04-16T10:32:27.821Z,6.40
2019-04-16T10:34:56.384Z,7.23
2019-04-16T10:37:24.860Z,6.97
2019-04-16T10:40:04.711Z,7.00
2019-04-16T10:42:50.563Z,6.20
2019-04-16T10:45:38.080Z,5.67
2019-04-16T10:48:35.061Z,6.33
2019-04-16T10:51:15.187Z,5.37
2019-04-16T10:53:50.796Z,7.60
2019-04-16T10:56:32.214Z,6.33
2019-04-16T10:59:22.755Z,7.60
2019-04-16T11:01:57.912Z,5.60
2019-04-16T11:04:54.539Z,5.70
2019-04-16T11:07:25.494Z,5.33
2019-04-16T11:09:53.973Z,7.30
2019-04-16T11:12:22.444Z,6.80
2019-04-16T11:14:51.194Z,6.73
2019-04-16T11:17:21.257Z,7.03
2019-04-16T11:19:52.623Z,6.50
2019-04-16T11:22:19.925Z,7.77
2019-04-16T11:24:48.402Z,6.60
2019-04-16T11:27:16.844Z,8.20
2019-04-16T11:29:45.325Z,7.10
2019-04-16T11:32:15.277Z,7.50
2019-04-16T11:34:43.781Z,7.60
2019-04-16T11:37:12.234Z,7.37
2019-04-16T11:39:40.675Z,7.90
2019-04-16T11:42:09.203Z,7.97
2019-04-16T11:44:37.717Z,7.47
2019-04-16T11:47:07.021Z,7.10
2019-04-16T11:49:35.583Z,8.27
2019-04-16T11:52:04.356Z,7.83
2019-04-16T11:54:32.804Z,7.20
2019-04-16T11:57:01.245Z,5.73
2019-04-16T11:59:29.718Z,7.07
2019-04-16T12:02:06.869Z,8.30
2019-04-16T12:04:48.338Z,6.90
2019-04-16T12:07:23.872Z,7.00
2019-04-16T12:10:13.558Z,7.10
2019-04-16T12:13:03.846Z,6.40
2019-04-16T12:15:50.922Z,8.60
2019-04-16T12:18:27.231Z,7.60
2019-04-16T12:21:03.149Z,7.83
2019-04-16T12:23:50.860Z,8.93
2019-04-16T12:26:41.564Z,7.63
2019-04-16T12:29:32.968Z,6.67
2019-04-16T12:32:19.312Z,7.73
2019-04-16T12:35:01.954Z,7.67
2019-04-16T12:37:48.471Z,7.40
2019-04-16T12:40:23.821Z,6.13
2019-04-16T12:43:00.855Z,7.33
2019-04-16T12:45:48.403Z,6.60
2019-04-16T12:48:28.488Z,6.43
2019-04-16T12:51:10.987Z,5.40
2019-04-16T12:54:07.816Z,5.70
2019-04-16T12:56:49.724Z,6.03
2019-04-16T12:59:23.162Z,5.67
2019-04-16T13:02:13.653Z,5.17
2019-04-16T13:04:48.770Z,5.10
2019-04-16T13:07:43.087Z,5.70
2019-04-16T13:10:17.938Z,5.30
2019-04-16T13:12:57.587Z,6.03
2019-04-16T13:15:33.227Z,6.37
2019-04-16T13:18:08.092Z,5.83
2019-04-16T13:21:06.854Z,5.60
2019-04-16T13:23:42.399Z,5.57
2019-04-16T13:26:24.335Z,5.90
2019-04-16T13:28:55.504Z,5.93
2019-04-16T13:31:23.284Z,5.60
2019-04-16T13:33:51.758Z,5.83
2019-04-16T13:36:20.242Z,5.53
2019-04-16T13:38:53.737Z,5.77
2019-04-16T13:41:26.348Z,5.93
2019-04-16T13:43:57.259Z,6.37
2019-04-16T13:46:29.279Z,6.63
2019-04-16T13:49:01.051Z,6.43
2019-04-16T13:51:29.570Z,6.90
2019-04-16T13:54:16.175Z,5.70
2019-04-16T13:56:50.612Z,6.50
2019-04-16T13:59:36.888Z,7.60
2019-04-16T14:02:17.359Z,6.63
2019-04-16T14:04:43.368Z,6.13
2019-04-16T14:07:11.845Z,5.97
2019-04-16T14:09:40.317Z,6.33
2019-04-16T14:12:08.818Z,6.60
2019-04-16T14:14:37.270Z,5.87
2019-04-16T14:17:09.764Z,6.83
2019-04-16T14:19:37.861Z,5.70
2019-04-16T14:22:06.149Z,5.33
2019-04-16T14:24:34.605Z,5.37
2019-04-16T14:27:03.154Z,5.20
2019-04-16T14:29:31.625Z,5.00
2019-04-16T14:32:00.181Z,5.07
2019-04-16T14:34:56.578Z,4.53
2019-04-16T14:37:25.049Z,5.37
2019-04-16T14:40:03.243Z,4.70
2019-04-16T14:42:31.712Z,4.77
2019-04-16T14:45:08.684Z,4.97
2019-04-16T14:47:38.020Z,4.90
2019-04-16T14:50:06.686Z,4.63
2019-04-16T14:52:35.458Z,4.80
2019-04-16T14:55:12.367Z,4.50
2019-04-16T14:57:59.868Z,5.07
2019-04-16T15:00:53.452Z,4.40
2019-04-16T15:03:44.064Z,4.70
2019-04-16T15:06:28.957Z,4.83
2019-04-16T15:09:09.921Z,4.70
2019-04-16T15:11:58.308Z,4.67
2019-04-16T15:14:32.604Z,4.40
2019-04-16T15:17:13.390Z,4.60
2019-04-16T15:19:45.587Z,3.63
2019-04-16T15:22:22.314Z,4.10
2019-04-16T15:25:12.887Z,4.20
2019-04-16T15:28:15.725Z,4.30
2019-04-16T15:30:50.728Z,4.33
2019-04-16T15:33:53.365Z,4.70
2019-04-16T15:36:24.766Z,4.60
2019-04-16T15:38:59.015Z,5.00
2019-04-16T15:41:46.369Z,5.27
2019-04-16T15:44:31.683Z,5.13
2019-04-16T15:47:07.131Z,5.67
2019-04-16T15:49:40.639Z,5.40
2019-04-16T15:52:26.518Z,6.00
2019-04-16T15:55:32.513Z,5.57
2019-04-16T15:58:24.101Z,6.70
2019-04-16T16:01:05.326Z,6.80
2019-04-16T16:03:59.140Z,4.37
2019-04-16T16:06:28.771Z,5.93
2019-04-16T16:09:03.801Z,6.23
2019-04-16T16:11:44.281Z,5.30
2019-04-16T16:14:10.718Z,5.10
2019-04-16T16:16:41.946Z,4.53
2019-04-16T16:19:11.988Z,5.87
2019-04-16T16:21:39.564Z,5.30
2019-04-16T16:24:08.445Z,5.53
2019-04-16T16:26:37.077Z,6.50
2019-04-16T16:29:05.641Z,5.67
2019-04-16T16:31:35.724Z,5.90
2019-04-16T16:34:08.523Z,5.33
2019-04-16T16:36:36.587Z,6.00
2019-04-16T16:39:06.751Z,6.57
2019-04-16T16:41:35.514Z,6.67
2019-04-16T16:44:03.993Z,7.40
2019-04-16T16:46:57.176Z,7.07
2019-04-16T16:49:20.728Z,6.73
2019-04-16T16:52:07.212Z,7.83
2019-04-16T16:54:35.741Z,7.93
2019-04-16T16:57:08.872Z,8.60
2019-04-16T16:59:42.956Z,8.03
2019-04-16T17:02:25.690Z,7.03
2019-04-16T17:04:54.445Z,6.33
2019-04-16T17:07:22.931Z,7.23
2019-04-16T17:09:51.394Z,7.30
2019-04-16T17:12:19.946Z,7.20
2019-04-16T17:14:48.421Z,8.60
2019-04-16T17:17:16.906Z,7.93
2019-04-16T17:19:45.386Z,7.03
2019-04-16T17:22:14.619Z,7.17
2019-04-16T17:24:44.414Z,7.50
2019-04-16T17:27:12.919Z,6.97
2019-04-16T17:29:41.398Z,8.10
2019-04-16T17:32:09.875Z,7.37
2019-04-16T17:34:39.763Z,6.37
2019-04-16T17:37:08.424Z,7.27
2019-04-16T17:39:44.718Z,7.20
2019-04-16T17:42:13.847Z,7.90
2019-04-16T17:44:59.871Z,6.77
2019-04-16T17:47:50.443Z,7.03
2019-04-16T17:50:32.077Z,6.10
2019-04-16T17:53:08.173Z,5.80
2019-04-16T17:56:11.029Z,6.83
2019-04-16T17:58:48.712Z,6.97
2019-04-16T18:01:30.582Z,5.83
2019-04-16T18:04:10.807Z,6.03
2019-04-16T18:06:43.821Z,6.23
2019-04-16T18:09:32.565Z,7.23
2019-04-16T18:12:19.942Z,7.27
2019-04-16T18:15:00.590Z,7.00
2019-04-16T18:17:47.744Z,5.10
2019-04-16T18:20:24.435Z,6.27
2019-04-16T18:23:03.141Z,5.63
2019-04-16T18:25:59.899Z,6.40
2019-04-16T18:28:36.708Z,7.03
2019-04-16T18:31:14.884Z,6.53
2019-04-16T18:33:48.307Z,6.03
2019-04-16T18:39:10.170Z,6.63
2019-04-16T18:42:03.574Z,5.23
2019-04-16T18:44:51.241Z,6.80
2019-04-16T18:48:01.607Z,7.57
2019-04-16T18:50:23.589Z,6.53
2019-04-16T18:52:51.766Z,6.60
2019-04-16T18:55:20.708Z,6.67
2019-04-16T18:57:49.501Z,6.33
2019-04-16T19:00:43.214Z,6.23
2019-04-16T19:03:15.124Z,7.67
2019-04-16T19:05:42.505Z,5.83
2019-04-16T19:08:10.969Z,6.57
2019-04-16T19:10:39.658Z,7.00
2019-04-16T19:13:11.310Z,7.73
2019-04-16T19:15:38.414Z,6.00
2019-04-16T19:18:18.895Z,6.03
2019-04-16T19:20:37.166Z,6.63
2019-04-16T19:23:05.655Z,6.43
2019-04-16T19:25:34.416Z,7.27
2019-04-16T19:28:06.614Z,7.30
2019-04-16T19:30:33.294Z,6.80
2019-04-16T19:33:02.340Z,5.77
2019-04-16T19:35:30.846Z,8.33
2019-04-16T19:38:02.282Z,7.40
2019-04-16T19:40:29.623Z,6.90
2019-04-16T19:43:02.303Z,6.97
2019-04-16T19:45:28.344Z,6.80
2019-04-16T19:48:00.306Z,6.40
2019-04-16T19:50:33.239Z,7.43
2019-04-16T19:52:57.760Z,6.67
2019-04-16T19:55:26.235Z,6.93
2019-04-16T19:57:56.948Z,7.20
2019-04-16T20:00:24.946Z,7.17
2019-04-16T20:02:53.713Z,6.97
2019-04-16T20:05:22.547Z,7.63
2019-04-16T20:07:51.042Z,8.13
2019-04-16T20:10:19.556Z,6.73
2019-04-16T20:12:48.005Z,7.07
2019-04-16T20:15:16.483Z,7.20
2019-04-16T20:17:44.971Z,7.20
2019-04-16T20:20:13.465Z,6.23
2019-04-16T20:22:41.979Z,7.17
2019-04-16T20:25:12.163Z,6.83
2019-04-16T20:27:40.981Z,7.13
2019-04-16T20:30:11.326Z,7.63
2019-04-16T20:32:42.321Z,8.67
2019-04-16T20:35:10.035Z,6.33
2019-04-16T20:37:38.749Z,7.03
2019-04-16T20:40:07.328Z,6.00
2019-04-16T20:42:35.803Z,6.27
2019-04-16T20:45:04.552Z,5.97
2019-04-16T20:47:38.835Z,5.37
2019-04-16T20:50:04.459Z,6.27
2019-04-16T20:52:34.148Z,5.97
2019-04-16T20:55:04.004Z,5.13
2019-04-16T20:57:32.448Z,5.97
2019-04-16T21:00:00.911Z,5.67
2019-04-16T21:02:31.464Z,5.00
2019-04-16T21:05:02.667Z,4.67
2019-04-16T21:07:30.146Z,5.90
2019-04-16T21:09:59.843Z,5.67
2019-04-16T21:12:28.837Z,5.60
2019-04-16T21:14:57.281Z,5.53
2019-04-16T21:17:25.768Z,5.23
2019-04-16T21:19:54.268Z,6.10
2019-04-16T21:22:24.856Z,5.87
2019-04-16T21:24:53.245Z,5.30
2019-04-16T21:27:21.722Z,5.63
2019-04-16T21:29:50.176Z,5.10
2019-04-16T21:32:37.679Z,5.10
2019-04-16T21:35:13.005Z,5.60
2019-04-16T21:37:59.171Z,4.70
2019-04-16T21:40:27.647Z,5.43
2019-04-16T21:42:56.333Z,5.67
2019-04-16T21:45:24.780Z,5.70
2019-04-16T21:47:55.110Z,5.90
2019-04-16T21:50:23.937Z,5.17
2019-04-16T21:52:55.222Z,7.07
2019-04-16T21:55:22.725Z,5.70
2019-04-16T21:57:51.262Z,6.20
2019-04-16T22:00:37.525Z,5.80
2019-04-16T22:03:09.772Z,5.93
2019-04-16T22:05:37.138Z,5.80
2019-04-16T22:08:05.615Z,5.43
2019-04-16T22:10:34.105Z,6.20
2019-04-16T22:13:02.590Z,5.80
2019-04-16T22:15:31.017Z,5.67
2019-04-16T22:17:59.711Z,5.40
2019-04-16T22:20:28.254Z,6.50
2019-04-16T22:22:56.748Z,6.00
2019-04-16T22:25:26.782Z,6.83
2019-04-16T22:27:55.857Z,5.47
2019-04-16T22:30:24.670Z,6.27
2019-04-16T22:32:53.156Z,7.33
2019-04-16T22:35:22.794Z,8.30
2019-04-16T22:37:51.170Z,6.20
2019-04-16T22:40:33.921Z,5.40
2019-04-16T22:43:33.823Z,5.67
2019-04-16T22:46:09.601Z,4.47
2019-04-16T22:48:40.046Z,5.50
2019-04-16T22:51:10.007Z,6.47
2019-04-16T22:53:38.735Z,6.57
2019-04-16T22:56:07.508Z,5.63
2019-04-16T22:58:48.613Z,6.27
2019-04-16T23:01:17.575Z,6.27
2019-04-16T23:03:46.052Z,5.83
2019-04-16T23:06:14.823Z,6.03
2019-04-16T23:08:43.552Z,6.13
2019-04-16T23:11:12.717Z,5.40
2019-04-16T23:13:41.345Z,5.70
2019-04-16T23:16:10.409Z,6.40
2019-04-16T23:18:38.918Z,5.80
2019-04-16T23:21:10.131Z,5.70
2019-04-16T23:23:37.528Z,6.20
2019-04-16T23:26:05.953Z,6.20
2019-04-16T23:28:34.414Z,6.30
2019-04-16T23:31:02.969Z,6.20
2019-04-16T23:33:32.825Z,6.07
2019-04-16T23:36:01.550Z,5.73
2019-04-16T23:38:31.614Z,5.73
2019-04-16T23:41:00.199Z,6.47
2019-04-16T23:43:50.574Z,6.00
2019-04-16T23:46:37.761Z,5.00
2019-04-16T23:49:24.602Z,6.37
2019-04-16T23:52:03.773Z,6.10
2019-04-16T23:54:40.755Z,6.20
2019-04-16T23:57:15.138Z,6.00
2019-04-16T23:59:55.892Z,5.07
